Time;durP1;ratioP1;P1;durP2;ratioP2;P2;SDS_P1;SDS_P2;PMS_P1;PMS_P2;Temp;Humidity;BMP_temperature;BMP_pressure;BME280_temperature;BME280_humidity;BME280_pressure;Samples;Min_cycle;Max_cycle;Signal;HPM_P1;HPM_P2
2021/08/28 00:02:02;;;;;;;9.30;7.10;;;;;;;28.09;39.73;100373.56;112559;1215;74471;-87
2021/08/28 00:04:35;;;;;;;9.50;6.80;;;;;;;28.09;39.78;100374.35;112577;1213;60983;-85
2021/08/28 00:07:26;;;;;;;9.50;6.90;;;;;;;28.09;39.69;100378.15;112634;1216;60985;-83
2021/08/28 00:10:03;;;;;;;10.30;7.40;;;;;;;28.09;39.55;100376.86;112183;1224;63865;-89
2021/08/28 00:12:42;;;;;;;9.40;6.60;;;;;;;28.09;39.70;100381.55;112440;1215;66566;-87
2021/08/28 00:15:16;;;;;;;10.50;7.20;;;;;;;28.09;39.83;100390.02;112459;1216;61263;-83
2021/08/28 00:17:54;;;;;;;9.50;6.60;;;;;;;28.09;39.72;100396.36;112431;1216;62073;-87
2021/08/28 00:20:20;;;;;;;10.30;7.00;;;;;;;28.10;39.86;100398.15;112528;1222;65005;-88
2021/08/28 00:23:03;;;;;;;10.50;6.90;;;;;;;28.10;39.89;100397.59;112554;1214;66759;-85
2021/08/28 00:25:45;;;;;;;10.10;7.20;;;;;;;28.10;39.73;100398.33;112423;1222;60956;-87
2021/08/28 00:28:19;;;;;;;10.20;7.10;;;;;;;28.09;39.78;100402.36;112671;1222;60981;-84
2021/08/28 00:30:48;;;;;;;10.80;7.30;;;;;;;28.09;39.82;100411.77;112555;1215;63653;-84
2021/08/28 00:33:15;;;;;;;9.60;6.90;;;;;;;28.09;39.95;100422.29;112531;1216;65926;-86
2021/08/28 00:36:04;;;;;;;9.00;7.00;;;;;;;28.09;40.08;100431.83;112269;1216;61136;-88
2021/08/28 00:38:47;;;;;;;9.40;6.40;;;;;;;28.09;39.82;100435.26;112539;1216;61059;-84
2021/08/28 00:41:41;;;;;;;9.90;7.20;;;;;;;28.08;39.93;100436.42;112699;1216;63856;-85
2021/08/28 00:44:26;;;;;;;9.80;6.80;;;;;;;28.08;40.08;100448.02;112799;1213;65660;-87
2021/08/28 00:46:54;;;;;;;9.40;6.90;;;;;;;28.09;40.07;100453.25;112818;1213;61552;-91
2021/08/28 00:49:27;;;;;;;9.50;6.90;;;;;;;28.09;40.07;100450.52;112674;1220;61000;-83
2021/08/28 00:52:05;;;;;;;;;;;;;;;;;;;;;
2021/08/28 00:54:48;;;;;;;9.30;7.00;;;;;;;28.08;40.19;100455.95;112799;1213;65828;-81
2021/08/28 00:57:32;;;;;;;8.60;6.40;;;;;;;28.09;40.09;100457.92;112831;1213;61011;-87
2021/08/28 00:59:58;;;;;;;9.20;5.90;;;;;;;28.08;40.02;100459.96;112798;1220;61001;-87
2021/08/28 01:02:42;;;;;;;9.40;6.40;;;;;;;28.08;40.09;100461.96;112805;1219;63636;-81
2021/08/28 01:05:46;;;;;;;8.70;6.60;;;;;;;28.08;40.12;100463.20;112806;1220;65927;-84
2021/08/28 01:08:41;;;;;;;9.80;6.90;;;;;;;28.08;40.14;100462.33;112402;1216;61355;-87
2021/08/28 01:11:34;;;;;;;8.30;6.60;;;;;;;28.08;40.17;100461.27;112109;1225;61048;-87
2021/08/28 01:14:34;;;;;;;;;;;;;;;;;;;;;
2021/08/28 01:17:23;;;;;;;8.40;6.60;;;;;;;28.08;40.16;100455.50;111756;1222;75783;-91
2021/08/28 01:20:24;;;;;;;;;;;;;;;28.08;40.39;100459.52;111776;1228;61002;-86
2021/08/28 01:23:09;;;;;;;9.90;6.60;;;;;;;28.06;40.25;100474.70;111630;1221;61025;-89
2021/08/28 01:25:41;;;;;;;9.70;6.90;;;;;;;28.06;40.23;100477.59;111597;1224;64858;-88
2021/08/28 01:28:32;;;;;;;9.30;6.60;;;;;;;28.06;40.40;100474.64;111585;1224;66118;-83
2021/08/28 01:31:03;;;;;;;9.90;6.40;;;;;;;28.06;40.38;100475.59;111421;1228;62970;-85
2021/08/28 01:33:58;;;;;;;10.00;6.10;;;;;;;28.06;40.38;100485.33;111500;1229;61018;-89
2021/08/28 01:36:34;;;;;;;;;;;;;;;;;;;;;
2021/08/28 01:39:14;;;;;;;;;;;;;;;;;;;;;
2021/08/28 01:41:47;;;;;;;8.60;5.70;;;;;;;28.06;40.40;100477.23;111676;1223;60359;-92
2021/08/28 01:44:16;;;;;;;9.70;6.40;;;;;;;28.06;40.57;100472.70;111841;1222;60976;-88
2021/08/28 01:46:42;;;;;;;9.00;6.40;;;;;;;28.06;40.56;100465.79;112152;1219;63274;-84
2021/08/28 01:49:12;;;;;;;8.70;5.70;;;;;;;28.06;40.60;100459.84;112109;1219;60981;-84
2021/08/28 01:51:57;;;;;;;8.30;6.20;;;;;;;28.06;40.51;100462.42;112295;1218;60992;-83
2021/08/28 01:54:26;;;;;;;7.60;6.30;;;;;;;28.06;40.58;100459.50;112369;1216;59063;-83
2021/08/28 01:57:01;;;;;;;10.20;6.70;;;;;;;28.06;40.77;100453.16;112550;1218;63906;-86
2021/08/28 01:59:51;;;;;;;9.30;6.20;;;;;;;28.06;40.76;100451.40;112973;1210;66661;-83
2021/08/28 02:02:42;;;;;;;7.20;6.30;;;;;;;28.05;40.70;100454.88;112977;1210;60903;-88
2021/08/28 02:05:28;;;;;;;8.30;5.90;;;;;;;28.04;40.71;100458.76;113018;1217;61014;-85
2021/08/28 02:08:02;;;;;;;8.60;6.10;;;;;;;28.04;40.68;100458.92;112975;1217;63679;-85
2021/08/28 02:10:51;;;;;;;7.80;6.10;;;;;;;28.05;40.73;100458.15;112981;1210;67127;-87
2021/08/28 02:13:46;;;;;;;9.20;6.20;;;;;;;28.04;40.67;100456.20;113001;1210;60990;-82
2021/08/28 02:16:33;;;;;;;9.80;6.40;;;;;;;28.04;40.78;100450.99;112982;1211;61051;-85
2021/08/28 02:19:17;;;;;;;8.80;5.80;;;;;;;28.04;40.92;100449.56;112995;1217;64614;-85
2021/08/28 02:21:50;;;;;;;8.10;5.90;;;;;;;28.05;41.07;100450.80;113012;1217;65907;-86
2021/08/28 02:24:36;;;;;;;7.80;5.80;;;;;;;28.04;41.20;100454.58;113014;1210;60902;-86
2021/08/28 02:27:27;;;;;;;7.60;6.10;;;;;;;28.04;41.04;100459.13;112986;1217;60953;-85
2021/08/28 02:30:25;;;;;;;8.60;5.90;;;;;;;28.04;41.03;100461.70;112973;1211;63700;-87
2021/08/28 02:32:51;;;;;;;8.10;6.10;;;;;;;28.03;41.27;100469.16;112981;1217;66626;-86
2021/08/28 02:35:20;;;;;;;11.10;6.00;;;;;;;28.04;41.03;100470.73;112998;1217;60955;-85
2021/08/28 02:37:46;;;;;;;8.90;6.10;;;;;;;28.04;41.26;100468.05;112984;1214;61050;-84
2021/08/28 02:40:23;;;;;;;8.80;6.00;;;;;;;28.04;41.30;100465.66;113025;1211;60954;-82
2021/08/28 02:43:02;;;;;;;9.00;6.20;;;;;;;28.04;41.28;100465.17;112976;1210;66635;-87
2021/08/28 02:45:41;;;;;;;9.20;6.20;;;;;;;28.04;41.36;100466.29;113003;1217;61033;-87
2021/08/28 02:48:07;;;;;;;;;;;;;;;28.04;41.13;100471.34;113006;1210;60968;-87
2021/08/28 02:50:55;;;;;;;8.20;5.40;;;;;;;28.02;41.35;100473.16;112976;1217;64783;-85
2021/08/28 02:53:23;;;;;;;8.50;5.80;;;;;;;28.02;41.32;100475.50;113011;1210;66815;-86
2021/08/28 02:56:01;;;;;;;8.40;6.20;;;;;;;28.02;41.30;100483.64;112989;1211;60941;-85
2021/08/28 02:58:40;;;;;;;8.40;5.70;;;;;;;28.02;41.11;100490.48;112989;1211;60951;-86
2021/08/28 03:01:19;;;;;;;7.80;5.70;;;;;;;28.02;41.31;100490.17;113019;1210;63905;-83
2021/08/28 03:03:57;;;;;;;8.50;6.00;;;;;;;28.02;41.28;100489.64;112985;1212;65667;-87
2021/08/28 03:06:51;;;;;;;;;;;;;;;;;;;;;
2021/08/28 03:09:17;;;;;;;7.80;5.40;;;;;;;28.02;41.27;100481.30;113034;1217;60973;-84
2021/08/28 03:11:59;;;;;;;8.40;5.90;;;;;;;28.02;41.27;100479.29;113030;1211;63898;-85
2021/08/28 03:14:34;;;;;;;8.40;5.50;;;;;;;28.01;41.42;100477.52;113024;1217;66697;-84
2021/08/28 03:17:23;;;;;;;8.30;6.00;;;;;;;28.02;41.49;100489.80;112996;1217;60984;-84
2021/08/28 03:19:49;;;;;;;;;;;;;;;28.01;41.62;100501.40;112988;1212;61082;-83
2021/08/28 03:22:17;;;;;;;7.60;5.60;;;;;;;28.00;41.68;100506.05;113013;1217;60987;-82
2021/08/28 03:25:15;;;;;;;7.40;5.70;;;;;;;28.00;41.51;100507.86;112882;1218;67175;-80
2021/08/28 03:27:44;;;;;;;7.50;5.80;;;;;;;28.00;41.61;100504.61;113015;1211;60943;-91
2021/08/28 03:30:27;;;;;;;7.70;5.60;;;;;;;28.01;41.51;100508.72;113004;1211;60964;-83
2021/08/28 03:33:04;;;;;;;9.80;5.90;;;;;;;28.00;41.67;100511.85;112821;1214;64812;-86
2021/08/28 03:35:33;;;;;;;6.80;5.50;;;;;;;28.00;41.75;100514.16;112983;1210;66538;-86
2021/08/28 03:38:20;;;;;;;6.50;5.40;;;;;;;28.01;41.62;100514.30;112999;1212;60952;-85
2021/08/28 03:40:55;;;;;;;7.70;5.90;;;;;;;28.00;41.62;100516.52;112979;1211;61132;-87
2021/08/28 03:43:27;;;;;;;10.30;5.30;;;;;;;28.01;41.56;100519.73;113042;1217;63948;-84
2021/08/28 03:46:09;;;;;;;6.30;5.20;;;;;;;28.01;41.54;100527.13;112995;1210;65761;-83
2021/08/28 03:48:44;;;;;;;8.60;5.50;;;;;;;28.01;41.59;100533.98;113003;1210;61015;-84
2021/08/28 03:51:30;;;;;;;8.10;5.30;;;;;;;28.00;41.63;100540.73;112999;1217;61010;-85
2021/08/28 03:54:19;;;;;;;7.00;5.40;;;;;;;28.01;41.67;100547.20;112998;1211;63709;-90
2021/08/28 03:56:54;;;;;;;8.30;5.50;;;;;;;28.01;41.66;100552.44;113033;1217;65764;-86
2021/08/28 03:59:36;;;;;;;8.20;5.50;;;;;;;28.01;41.67;100557.33;112985;1218;60930;-89
2021/08/28 04:02:16;;;;;;;6.90;5.50;;;;;;;28.01;41.67;100559.73;113041;1217;61080;-86
2021/08/28 04:04:56;;;;;;;7.10;5.20;;;;;;;28.01;41.70;100564.20;112999;1211;63801;-89
2021/08/28 04:07:24;;;;;;;6.90;5.60;;;;;;;28.01;41.74;100572.70;112989;1211;66697;-85
2021/08/28 04:09:50;;;;;;;7.30;5.80;;;;;;;28.01;41.79;100579.19;113021;1217;61056;-86
2021/08/28 04:12:28;;;;;;;6.10;4.90;;;;;;;28.01;41.78;100580.66;113004;1211;61057;-83
2021/08/28 04:14:54;;;;;;;6.70;5.30;;;;;;;28.01;41.70;100584.29;112976;1217;63616;-85
2021/08/28 04:17:36;;;;;;;6.90;5.50;;;;;;;28.01;41.75;100584.25;112986;1217;65940;-89
2021/08/28 04:20:10;;;;;;;7.80;5.80;;;;;;;28.01;41.66;100589.81;112979;1218;59772;-87
2021/08/28 04:22:40;;;;;;;;;;;;;;;28.02;41.89;100591.98;113049;1217;60954;-86
2021/08/28 04:25:27;;;;;;;7.20;5.10;;;;;;;27.99;41.78;100596.42;113023;1210;60985;-90
2021/08/28 04:27:53;;;;;;;8.50;5.40;;;;;;;27.99;41.85;100597.45;113005;1217;65741;-86
2021/08/28 04:30:42;;;;;;;8.90;6.00;;;;;;;28.00;41.77;100601.89;113014;1216;60996;-89
2021/08/28 04:33:27;;;;;;;;;;;;;;;;;;;;;
2021/08/28 04:36:03;;;;;;;7.60;5.80;;;;;;;28.00;41.89;100624.92;112980;1218;64602;-83
2021/08/28 04:39:00;;;;;;;7.40;5.60;;;;;;;28.00;41.79;100632.14;112950;1216;66683;-89
2021/08/28 04:41:46;;;;;;;9.20;6.50;;;;;;;28.00;42.03;100642.09;113006;1217;60994;-83
2021/08/28 04:44:21;;;;;;;7.60;5.50;;;;;;;28.00;42.02;100649.65;113043;1217;60948;-83
2021/08/28 04:46:50;;;;;;;9.70;5.80;;;;;;;28.00;41.89;100667.73;112978;1217;63988;-90
2021/08/28 04:49:27;;;;;;;8.50;5.80;;;;;;;28.01;41.88;100680.18;112985;1218;65130;-88
2021/08/28 04:51:53;;;;;;;8.80;6.20;;;;;;;28.00;42.05;100681.64;112961;1218;60971;-89
2021/08/28 04:54:32;;;;;;;;;;;;;;;;;;;;;
2021/08/28 04:57:11;;;;;;;7.80;5.90;;;;;;;28.01;41.76;100672.20;112988;1218;64591;-88
2021/08/28 04:59:57;;;;;;;7.30;5.80;;;;;;;28.01;42.07;100670.59;112774;1220;67015;-83
2021/08/28 05:02:34;;;;;;;8.20;6.10;;;;;;;28.00;42.06;100681.11;112714;1221;60970;-85
2021/08/28 05:05:11;;;;;;;;;;;;;;;28.01;42.02;100696.98;112656;1221;61073;-88
2021/08/28 05:07:57;;;;;;;8.80;5.70;;;;;;;27.98;42.19;100697.20;112728;1220;63637;-87
2021/08/28 05:10:43;;;;;;;7.30;5.40;;;;;;;27.99;42.04;100686.11;112741;1221;66852;-90
2021/08/28 05:13:22;;;;;;;9.30;5.70;;;;;;;27.99;42.06;100681.07;112712;1221;61139;-86
2021/08/28 05:15:57;;;;;;;9.40;5.90;;;;;;;27.99;41.99;100677.81;112747;1221;61080;-90
2021/08/28 05:18:35;;;;;;;8.50;5.80;;;;;;;27.99;42.21;100679.23;112751;1220;63578;-86
2021/08/28 05:21:09;;;;;;;8.80;6.00;;;;;;;27.99;42.23;100689.35;112477;1223;65995;-90
2021/08/28 05:23:44;;;;;;;7.40;5.40;;;;;;;27.99;42.25;100696.94;112831;1220;61008;-88
2021/08/28 05:26:22;;;;;;;5.90;5.10;;;;;;;27.99;42.21;100693.75;112805;1220;61039;-86
2021/08/28 05:28:56;;;;;;;7.40;5.30;;;;;;;27.99;42.26;100694.10;112752;1221;64600;-83
2021/08/28 05:31:41;;;;;;;9.40;5.30;;;;;;;27.99;42.39;100695.52;112698;1222;66652;-89
2021/08/28 05:34:27;;;;;;;9.00;5.50;;;;;;;27.99;42.34;100709.45;112716;1220;61025;-87
2021/08/28 05:37:08;;;;;;;8.50;5.50;;;;;;;27.99;42.34;100717.63;112756;1221;61202;-85
2021/08/28 05:39:48;;;;;;;7.10;5.10;;;;;;;27.99;42.18;100725.54;113057;1217;64763;-91
2021/08/28 05:42:17;;;;;;;7.60;5.50;;;;;;;27.99;42.28;100727.50;112987;1218;68430;-83
2021/08/28 05:44:45;;;;;;;8.40;5.80;;;;;;;27.99;42.39;100724.45;113025;1217;60957;-84
2021/08/28 05:47:11;;;;;;;8.00;5.30;;;;;;;27.99;42.33;100722.42;112961;1211;61011;-81
2021/08/28 05:49:41;;;;;;;8.20;5.60;;;;;;;28.00;42.15;100722.37;112958;1215;60964;-88
2021/08/28 05:52:14;;;;;;;7.90;5.40;;;;;;;27.99;42.35;100723.34;112968;1211;65620;-85
2021/08/28 05:54:49;;;;;;;7.30;5.80;;;;;;;27.99;42.44;100722.12;112982;1218;61153;-85
2021/08/28 05:57:18;;;;;;;8.10;5.80;;;;;;;27.99;42.44;100728.08;113000;1219;60961;-87
2021/08/28 06:00:08;;;;;;;8.20;5.40;;;;;;;27.99;42.43;100730.05;112967;1214;64521;-85
2021/08/28 06:02:39;;;;;;;7.40;5.00;;;;;;;27.99;42.52;100716.34;112976;1220;65576;-84
2021/08/28 06:05:22;;;;;;;8.00;5.10;;;;;;;27.98;42.54;100700.64;113037;1217;61048;-85
2021/08/28 06:07:57;;;;;;;8.60;5.70;;;;;;;27.98;42.31;100682.02;113001;1219;60973;-87
2021/08/28 06:10:25;;;;;;;7.10;5.50;;;;;;;27.98;42.34;100678.05;113016;1217;63789;-83
2021/08/28 06:13:07;;;;;;;;;;;;;;;;;;;;;
2021/08/28 06:15:56;;;;;;;7.80;5.60;;;;;;;27.98;42.44;100680.75;112969;1216;60907;-86
2021/08/28 06:18:22;;;;;;;8.90;6.00;;;;;;;27.98;42.43;100678.24;112976;1218;60942;-87
2021/08/28 06:21:08;;;;;;;7.30;5.30;;;;;;;27.98;42.71;100677.89;112996;1214;64874;-88
2021/08/28 06:24:01;;;;;;;9.70;5.40;;;;;;;27.98;42.35;100676.76;112941;1211;75446;-87
2021/08/28 06:26:36;;;;;;;6.20;5.00;;;;;;;27.98;42.46;100678.86;112980;1211;60947;-83
2021/08/28 06:29:21;;;;;;;;;;;;;;;;;;;;;
2021/08/28 06:31:58;;;;;;;7.10;5.40;;;;;;;27.98;42.61;100696.94;112984;1216;63541;-84
2021/08/28 06:34:39;;;;;;;6.80;5.20;;;;;;;27.98;42.50;100709.00;113003;1216;65678;-85
2021/08/28 06:37:24;;;;;;;7.40;5.10;;;;;;;27.98;42.51;100720.23;113012;1217;60941;-87
2021/08/28 06:39:50;;;;;;;6.30;4.90;;;;;;;27.98;42.51;100722.09;112991;1217;60975;-88
2021/08/28 06:42:40;;;;;;;6.80;5.10;;;;;;;27.97;42.53;100713.95;112960;1217;63676;-84
2021/08/28 06:45:08;;;;;;;6.90;4.90;;;;;;;27.97;42.67;100693.38;112968;1216;65748;-85
2021/08/28 06:47:43;;;;;;;;;;;;;;;27.97;42.51;100664.95;112996;1218;60965;-83
2021/08/28 06:50:18;;;;;;;8.00;5.00;;;;;;;27.94;42.64;100674.08;112987;1218;60807;-84
2021/08/28 06:53:05;;;;;;;8.90;5.40;;;;;;;27.95;42.74;100699.89;113014;1219;63574;-84
2021/08/28 06:55:40;;;;;;;8.00;5.50;;;;;;;27.95;42.85;100711.36;112967;1215;65626;-86
2021/08/28 06:58:18;;;;;;;7.10;5.50;;;;;;;27.95;42.62;100714.91;113053;1217;60964;-83
2021/08/28 07:00:49;;;;;;;9.80;5.00;;;;;;;27.95;42.63;100712.03;113041;1217;60990;-84
2021/08/28 07:03:18;;;;;;;7.30;5.40;;;;;;;27.95;42.57;100709.14;112954;1219;63591;-84
2021/08/28 07:05:54;;;;;;;8.20;5.10;;;;;;;27.94;42.73;100712.98;112927;1220;65689;-87
2021/08/28 07:08:19;;;;;;;8.20;5.30;;;;;;;27.95;42.73;100723.26;112974;1216;61169;-84
2021/08/28 07:10:57;;;;;;;8.80;5.20;;;;;;;27.95;42.44;100732.08;112981;1211;61030;-84
2021/08/28 07:13:32;;;;;;;8.00;5.00;;;;;;;27.95;42.49;100730.98;112983;1216;65111;-85
2021/08/28 07:15:58;;;;;;;7.20;5.40;;;;;;;27.95;42.84;100729.73;112953;1211;65739;-84
2021/08/28 07:18:58;;;;;;;7.00;5.00;;;;;;;27.96;42.66;100734.41;112960;1218;61059;-87
2021/08/28 07:21:34;;;;;;;7.60;5.10;;;;;;;27.94;42.72;100743.20;112573;1216;61016;-81
2021/08/28 07:24:10;;;;;;;7.70;5.30;;;;;;;27.95;42.73;100747.50;112614;1222;63649;-81
2021/08/28 07:26:47;;;;;;;8.10;5.10;;;;;;;27.95;42.53;100748.95;112571;1219;65839;-88
2021/08/28 07:29:15;;;;;;;6.60;4.70;;;;;;;27.95;42.61;100752.92;112541;1219;60971;-84
2021/08/28 07:31:41;;;;;;;7.20;5.10;;;;;;;27.95;42.47;100753.47;112584;1222;60985;-86
2021/08/28 07:34:18;;;;;;;;;;;;;;;;;;;;;
2021/08/28 07:36:56;;;;;;;8.10;4.90;;;;;;;27.94;42.68;100730.59;112198;1219;66029;-86
2021/08/28 07:39:41;;;;;;;8.40;5.40;;;;;;;27.94;42.76;100726.06;112588;1216;61010;-85
2021/08/28 07:42:16;;;;;;;7.30;4.90;;;;;;;27.93;42.82;100726.67;112598;1216;60958;-88
2021/08/28 07:44:45;;;;;;;6.70;4.80;;;;;;;27.94;42.80;100728.41;112524;1219;72318;-86
2021/08/28 07:47:19;;;;;;;7.10;4.90;;;;;;;27.93;42.79;100703.75;112396;1219;67118;-86
2021/08/28 07:50:08;;;;;;;8.90;5.20;;;;;;;27.93;42.61;100693.79;112442;1225;61146;-86
2021/08/28 07:52:34;;;;;;;8.40;5.50;;;;;;;27.92;42.65;100692.75;112702;1214;60965;-84
2021/08/28 07:55:22;;;;;;;8.70;5.10;;;;;;;27.92;42.60;100684.42;113015;1211;63528;-87
2021/08/28 07:57:51;;;;;;;8.00;5.10;;;;;;;27.92;42.75;100681.77;112982;1212;65864;-85
2021/08/28 08:00:22;;;;;;;7.10;4.80;;;;;;;27.92;42.76;100681.88;113047;1216;61050;-84
2021/08/28 08:02:51;;;;;;;6.50;4.90;;;;;;;27.93;42.69;100675.53;113006;1216;60990;-88
2021/08/28 08:05:25;;;;;;;;;;;;;;;27.92;42.58;100670.64;112986;1217;65153;-92
2021/08/28 08:08:00;;;;;;;8.30;5.20;;;;;;;27.90;42.68;100670.00;112976;1217;66576;-87
2021/08/28 08:10:38;;;;;;;7.40;4.70;;;;;;;27.90;42.72;100666.91;113063;1218;61000;-85
2021/08/28 08:13:14;;;;;;;6.70;4.60;;;;;;;27.90;42.77;100669.23;113064;1217;61024;-87
2021/08/28 08:15:49;;;;;;;8.30;4.80;;;;;;;27.91;42.88;100667.95;112964;1212;73980;-85
2021/08/28 08:18:18;;;;;;;7.50;5.50;;;;;;;27.90;42.92;100669.61;112966;1216;65655;-86
2021/08/28 08:21:00;;;;;;;6.50;5.30;;;;;;;27.90;42.83;100672.65;112994;1218;61073;-90
2021/08/28 08:23:39;;;;;;;8.10;4.80;;;;;;;27.91;42.87;100675.38;112992;1213;60984;-85
2021/08/28 08:26:24;;;;;;;9.30;4.80;;;;;;;27.90;42.78;100673.44;112985;1217;64027;-83
2021/08/28 08:28:58;;;;;;;8.00;5.00;;;;;;;27.90;42.95;100672.39;112957;1219;75606;-85
2021/08/28 08:31:24;;;;;;;8.30;5.20;;;;;;;27.90;42.76;100679.95;113060;1218;60919;-82
2021/08/28 08:34:10;;;;;;;7.00;4.90;;;;;;;27.90;42.90;100684.70;113012;1216;61020;-85
2021/08/28 08:36:50;;;;;;;7.20;4.70;;;;;;;27.89;42.88;100688.71;113022;1221;63685;-83
2021/08/28 08:39:19;;;;;;;7.90;4.70;;;;;;;27.89;42.86;100689.78;113044;1217;65714;-89
2021/08/28 08:41:55;;;;;;;7.00;5.00;;;;;;;27.89;42.81;100686.16;112993;1212;61090;-85
2021/08/28 08:44:48;;;;;;;;;;;;;;;;;;;;;
2021/08/28 08:47:15;;;;;;;6.40;4.50;;;;;;;27.89;42.96;100678.62;112963;1211;63709;-83
2021/08/28 08:49:55;;;;;;;7.00;4.80;;;;;;;27.89;42.81;100672.66;112965;1211;65878;-83
2021/08/28 08:52:35;;;;;;;5.80;4.60;;;;;;;27.89;42.79;100660.55;113009;1216;61044;-87
2021/08/28 08:55:25;;;;;;;8.00;5.30;;;;;;;27.89;42.98;100665.20;113041;1218;60935;-86
2021/08/28 08:57:52;;;;;;;;;;;;;;;27.89;42.83;100671.89;112982;1216;63524;-89
2021/08/28 09:00:38;;;;;;;7.30;4.50;;;;;;;27.88;42.82;100668.06;113040;1217;65925;-85
2021/08/28 09:03:24;;;;;;;7.30;5.20;;;;;;;27.88;42.82;100665.89;112983;1217;61115;-85
2021/08/28 09:05:50;;;;;;;8.80;5.00;;;;;;;27.88;42.83;100660.84;112896;1215;61027;-84
2021/08/28 09:08:16;;;;;;;7.60;4.60;;;;;;;27.88;42.73;100659.86;112803;1211;60938;-85
2021/08/28 09:10:47;;;;;;;7.10;4.90;;;;;;;27.88;42.94;100659.15;112705;1210;60987;-82
2021/08/28 09:13:20;;;;;;;7.40;4.90;;;;;;;27.88;42.95;100653.56;112845;1211;60891;-86
2021/08/28 09:16:02;;;;;;;7.70;4.80;;;;;;;27.88;42.96;100658.07;112908;1213;61031;-85
2021/08/28 09:18:54;;;;;;;6.80;4.60;;;;;;;27.88;43.07;100662.81;112963;1216;63661;-85
2021/08/28 09:21:46;;;;;;;6.90;4.70;;;;;;;27.88;43.07;100666.23;112941;1216;65668;-87
2021/08/28 09:24:24;;;;;;;8.70;5.10;;;;;;;27.88;42.95;100672.38;112681;1213;60980;-85
2021/08/28 09:26:54;;;;;;;6.70;4.50;;;;;;;27.88;42.95;100675.13;112643;1214;60968;-85
2021/08/28 09:29:29;;;;;;;7.60;4.50;;;;;;;27.88;43.05;100681.09;112592;1213;65024;-83
2021/08/28 09:32:04;;;;;;;6.20;4.50;;;;;;;27.88;42.91;100679.33;112224;1218;65807;-85
2021/08/28 09:34:43;;;;;;;6.30;4.40;;;;;;;27.87;42.98;100674.30;112573;1219;61015;-84
2021/08/28 09:37:30;;;;;;;6.30;4.80;;;;;;;27.87;42.88;100668.92;112716;1219;60937;-85
2021/08/28 09:40:08;;;;;;;7.60;4.90;;;;;;;27.86;42.94;100670.04;112601;1219;64429;-90
2021/08/28 09:42:51;;;;;;;5.80;4.20;;;;;;;27.86;43.16;100664.27;112652;1221;65635;-85
2021/08/28 09:45:27;;;;;;;6.60;4.80;;;;;;;27.86;43.06;100656.90;112594;1215;60875;-87
2021/08/28 09:48:13;;;;;;;6.20;4.60;;;;;;;27.85;42.96;100652.63;112676;1219;61479;-84
2021/08/28 09:50:46;;;;;;;6.30;4.40;;;;;;;27.85;43.03;100662.90;112537;1217;64559;-87
2021/08/28 09:53:23;;;;;;;5.90;4.30;;;;;;;27.85;43.05;100668.42;112619;1216;66500;-88
2021/08/28 09:56:09;;;;;;;7.90;4.60;;;;;;;27.85;43.01;100675.84;112610;1215;61035;-86
2021/08/28 09:58:44;;;;;;;8.50;4.70;;;;;;;27.85;43.11;100684.11;112603;1219;60958;-84
2021/08/28 10:01:26;;;;;;;6.00;4.30;;;;;;;27.84;42.93;100672.79;112666;1216;64732;-83
2021/08/28 10:04:13;;;;;;;8.00;5.20;;;;;;;27.84;42.98;100654.69;112952;1215;66660;-91
2021/08/28 10:07:14;;;;;;;8.00;4.90;;;;;;;27.84;42.96;100641.55;112951;1214;60999;-86
2021/08/28 10:09:54;;;;;;;8.10;4.70;;;;;;;27.83;43.02;100643.96;112991;1218;60964;-83
2021/08/28 10:12:28;;;;;;;7.60;4.50;;;;;;;27.83;42.93;100645.79;112961;1215;63621;-86
2021/08/28 10:15:04;;;;;;;8.60;4.40;;;;;;;27.83;42.89;100656.77;112948;1216;67126;-87
2021/08/28 10:17:33;;;;;;;6.90;4.70;;;;;;;27.84;42.98;100667.98;112947;1220;60961;-83
2021/08/28 10:19:58;;;;;;;;;;;;;;;27.84;42.88;100670.31;112968;1218;61013;-86
2021/08/28 10:22:56;;;;;;;7.30;4.40;;;;;;;27.82;42.95;100670.36;112927;1218;65155;-85
2021/08/28 10:26:02;;;;;;;7.00;4.50;;;;;;;27.82;43.14;100667.61;112687;1213;68737;-85
2021/08/28 10:28:38;;;;;;;6.40;4.30;;;;;;;27.83;43.16;100662.98;112993;1210;61025;-84
2021/08/28 10:31:16;;;;;;;8.00;4.90;;;;;;;27.82;43.16;100653.27;112965;1218;60953;-87
2021/08/28 10:33:45;;;;;;;7.10;4.60;;;;;;;27.83;43.06;100652.87;112993;1218;63796;-86
2021/08/28 10:36:13;;;;;;;6.40;4.40;;;;;;;27.83;43.09;100652.52;112948;1218;66772;-83
2021/08/28 10:38:42;;;;;;;7.60;4.80;;;;;;;27.83;43.11;100648.36;112976;1218;60971;-88
2021/08/28 10:41:28;;;;;;;;;;;;;;;27.83;43.06;100656.42;112985;1219;60983;-90
2021/08/28 10:44:14;;;;;;;5.70;4.20;;;;;;;27.81;43.01;100659.39;112868;1218;63713;-86
2021/08/28 10:46:41;;;;;;;5.90;4.00;;;;;;;27.82;42.95;100661.30;112929;1218;66728;-80
2021/08/28 10:49:27;;;;;;;7.80;4.40;;;;;;;27.82;43.11;100656.92;112953;1213;60964;-83
2021/08/28 10:52:17;;;;;;;7.00;4.30;;;;;;;27.82;43.27;100654.05;112983;1210;61046;-81
2021/08/28 10:55:02;;;;;;;6.00;4.10;;;;;;;27.82;43.08;100649.70;112963;1218;63711;-83
2021/08/28 10:57:49;;;;;;;7.00;4.80;;;;;;;27.83;43.03;100650.73;112963;1211;75961;-80
2021/08/28 11:00:48;;;;;;;6.30;4.10;;;;;;;27.82;42.94;100648.06;112955;1219;61098;-83
2021/08/28 11:03:44;;;;;;;;;;;;;;;27.82;42.97;100650.35;112555;1216;61050;-84
2021/08/28 11:06:22;;;;;;;6.50;4.00;;;;;;;27.81;43.18;100652.56;112562;1216;64521;-84
2021/08/28 11:09:06;;;;;;;6.70;4.00;;;;;;;27.81;42.92;100651.98;112581;1219;66064;-83
2021/08/28 11:12:01;;;;;;;;;;;;;;;;;;;;;
2021/08/28 11:15:00;;;;;;;6.60;4.40;;;;;;;27.82;42.88;100652.95;112544;1219;61117;-84
2021/08/28 11:18:03;;;;;;;6.60;4.30;;;;;;;27.82;43.07;100658.35;112577;1222;63550;-86
2021/08/28 11:21:01;;;;;;;7.40;4.50;;;;;;;27.82;43.03;100654.73;112071;1222;65783;-84
2021/08/28 11:23:49;;;;;;;;;;;;;;;27.82;43.04;100648.94;111750;1224;61076;-83
2021/08/28 11:26:35;;;;;;;6.00;4.20;;;;;;;27.81;42.96;100645.13;111369;1230;61085;-85
2021/08/28 11:29:40;;;;;;;6.20;4.20;;;;;;;27.81;43.13;100644.58;111216;1232;64859;-84
2021/08/28 11:32:25;;;;;;;8.10;4.60;;;;;;;27.81;43.06;100647.27;111375;1231;65941;-89
2021/08/28 11:34:55;;;;;;;7.10;4.20;;;;;;;27.82;42.93;100652.05;111197;1232;61022;-84
2021/08/28 11:37:44;;;;;;;6.70;4.30;;;;;;;27.82;42.89;100656.16;111219;1226;60973;-88
2021/08/28 11:40:36;;;;;;;5.70;4.20;;;;;;;27.82;42.96;100648.73;110884;1228;65089;-91
2021/08/28 11:43:33;;;;;;;6.20;4.30;;;;;;;27.83;43.03;100645.85;110766;1229;67318;-87
2021/08/28 11:46:23;;;;;;;6.20;4.10;;;;;;;27.84;43.07;100641.05;110892;1235;61142;-84
2021/08/28 11:48:48;;;;;;;6.70;4.30;;;;;;;27.83;42.96;100636.16;110900;1235;61300;-83
2021/08/28 11:51:24;;;;;;;6.00;4.40;;;;;;;27.84;43.06;100628.14;110867;1235;64663;-85
2021/08/28 11:54:18;;;;;;;5.50;4.20;;;;;;;27.84;43.10;100619.79;110628;1232;66379;-86
2021/08/28 11:56:58;;;;;;;5.90;4.30;;;;;;;27.85;43.06;100619.73;110930;1234;61044;-89
2021/08/28 11:59:40;;;;;;;7.20;4.50;;;;;;;27.85;43.06;100619.52;110916;1231;61013;-86
2021/08/28 12:02:09;;;;;;;7.60;4.20;;;;;;;27.85;43.14;100620.21;110902;1228;64633;-87
2021/08/28 12:04:46;;;;;;;6.80;4.30;;;;;;;27.86;43.10;100621.95;111441;1230;66740;-83
2021/08/28 12:07:23;;;;;;;9.10;4.50;;;;;;;27.86;43.08;100614.02;111428;1228;61492;-86
2021/08/28 12:10:12;;;;;;;6.00;4.20;;;;;;;27.86;43.18;100614.55;111266;1222;61022;-86
2021/08/28 12:12:49;;;;;;;;;;;;;;;27.86;43.24;100617.64;111442;1230;63994;-89
2021/08/28 12:15:27;;;;;;;5.80;4.10;;;;;;;27.84;43.23;100615.99;111599;1230;66999;-86
2021/08/28 12:17:56;;;;;;;5.40;4.30;;;;;;;27.85;43.25;100616.11;111950;1217;61084;-86
2021/08/28 12:20:43;;;;;;;5.50;3.90;;;;;;;27.85;43.20;100609.60;112123;1225;61000;-85
2021/08/28 12:23:14;;;;;;;6.30;4.00;;;;;;;27.85;43.23;100605.23;112157;1219;64644;-88
2021/08/28 12:25:48;;;;;;;6.20;4.20;;;;;;;27.85;43.46;100601.05;112117;1225;67755;-88
2021/08/28 12:28:22;;;;;;;7.00;4.20;;;;;;;27.86;43.25;100595.39;112115;1219;61098;-89
2021/08/28 12:31:13;;;;;;;6.70;4.30;;;;;;;27.86;43.04;100591.08;112101;1226;61001;-85